createdAt,value
2018-03-11T00:00:04.939Z,97.30
2018-03-11T00:02:32.485Z,97.40
2018-03-11T00:05:00.015Z,97.50
2018-03-11T00:07:27.533Z,97.60
2018-03-11T00:09:55.064Z,97.60
2018-03-11T00:12:22.583Z,97.60
2018-03-11T00:14:50.119Z,97.70
2018-03-11T00:17:18.396Z,97.60
2018-03-11T00:19:45.919Z,97.60
2018-03-11T00:22:13.432Z,97.40
2018-03-11T00:24:40.969Z,97.30
2018-03-11T00:27:08.485Z,96.90
2018-03-11T00:29:36.009Z,96.60
2018-03-11T00:32:03.525Z,96.80
2018-03-11T00:34:31.049Z,96.20
2018-03-11T00:36:58.557Z,96.20
2018-03-11T00:39:26.125Z,96.20
2018-03-11T00:41:53.637Z,96.20
2018-03-11T00:44:21.925Z,96.90
2018-03-11T00:46:50.227Z,97.20
2018-03-11T00:49:17.737Z,97.20
2018-03-11T00:51:45.290Z,97.40
2018-03-11T00:54:12.814Z,97.50
2018-03-11T00:56:41.128Z,97.20
2018-03-11T00:59:08.652Z,97.20
2018-03-11T01:01:36.185Z,97.30
2018-03-11T01:04:03.708Z,97.30
2018-03-11T01:06:31.262Z,97.40
2018-03-11T01:08:58.772Z,97.20
2018-03-11T01:11:27.069Z,97.60
2018-03-11T01:13:54.586Z,97.60
2018-03-11T01:16:22.121Z,97.70
2018-03-11T01:18:49.637Z,97.80
2018-03-11T01:21:17.182Z,97.90
2018-03-11T01:23:44.705Z,97.50
2018-03-11T01:26:12.228Z,97.30
2018-03-11T01:28:39.768Z,97.10
2018-03-11T01:31:08.076Z,96.60
2018-03-11T01:33:35.590Z,96.60
2018-03-11T01:36:03.138Z,96.70
2018-03-11T01:38:30.662Z,96.70
2018-03-11T01:40:58.965Z,96.40
2018-03-11T01:43:27.245Z,96.40
2018-03-11T01:45:55.542Z,96.70
2018-03-11T01:48:23.054Z,96.70
2018-03-11T01:50:50.576Z,96.70
2018-03-11T01:53:18.879Z,97.00
2018-03-11T01:55:46.402Z,96.90
2018-03-11T01:58:13.950Z,97.00
2018-03-11T02:00:41.485Z,97.00
2018-03-11T02:03:09.050Z,97.10
2018-03-11T02:05:37.334Z,97.00
2018-03-11T02:08:05.644Z,96.90
2018-03-11T02:10:33.164Z,96.90
2018-03-11T02:13:00.691Z,96.90
2018-03-11T02:15:28.201Z,97.20
2018-03-11T02:17:55.740Z,97.50
2018-03-11T02:20:23.243Z,97.20
2018-03-11T02:22:50.775Z,97.10
2018-03-11T02:25:18.300Z,97.20
2018-03-11T02:27:45.842Z,97.30
2018-03-11T02:30:13.348Z,97.40
2018-03-11T02:32:40.896Z,97.60
2018-03-11T02:35:08.414Z,97.70
2018-03-11T02:37:35.959Z,97.70
2018-03-11T02:40:03.491Z,97.70
2018-03-11T02:42:31.025Z,97.80
2018-03-11T02:44:59.314Z,97.80
2018-03-11T02:47:27.622Z,97.80
2018-03-11T02:49:55.218Z,97.80
2018-03-11T02:52:22.753Z,97.80
2018-03-11T02:54:51.038Z,98.00
2018-03-11T02:57:19.345Z,98.20
2018-03-11T02:59:46.859Z,98.20
2018-03-11T03:02:14.390Z,98.30
2018-03-11T03:04:42.673Z,98.30
2018-03-11T03:07:10.197Z,98.30
2018-03-11T03:09:37.744Z,98.10
2018-03-11T03:12:05.266Z,98.10
2018-03-11T03:14:32.819Z,97.90
2018-03-11T03:17:00.335Z,97.70
2018-03-11T03:19:27.879Z,97.70
2018-03-11T03:21:55.414Z,97.80
2018-03-11T03:24:22.953Z,97.60
2018-03-11T03:26:50.459Z,97.60
2018-03-11T03:29:17.992Z,97.60
2018-03-11T03:31:45.511Z,97.50
2018-03-11T03:34:13.040Z,97.40
2018-03-11T03:36:40.552Z,97.30
2018-03-11T03:39:08.081Z,97.40
2018-03-11T03:41:35.633Z,97.40
2018-03-11T03:44:03.928Z,97.70
2018-03-11T03:46:32.218Z,97.80
2018-03-11T03:49:00.517Z,97.70
2018-03-11T03:51:28.806Z,97.70
2018-03-11T03:53:57.112Z,97.70
2018-03-11T03:56:24.612Z,97.70
2018-03-11T03:58:52.946Z,97.70
2018-03-11T04:01:21.220Z,97.60
2018-03-11T04:03:48.756Z,97.60
2018-03-11T04:06:16.317Z,97.70
2018-03-11T04:08:43.885Z,97.60
2018-03-11T04:11:11.397Z,97.80
2018-03-11T04:13:38.924Z,97.80
2018-03-11T04:16:06.441Z,97.70
2018-03-11T04:18:33.975Z,97.70
2018-03-11T04:21:01.516Z,97.70
2018-03-11T04:23:29.802Z,97.40
2018-03-11T04:25:58.092Z,97.50
2018-03-11T04:28:26.400Z,97.70
2018-03-11T04:30:53.933Z,97.40
2018-03-11T04:33:22.962Z,97.70
2018-03-11T04:35:51.254Z,97.60
2018-03-11T04:38:19.570Z,97.90
2018-03-11T04:40:47.091Z,97.90
2018-03-11T04:43:14.616Z,97.90
2018-03-11T04:45:42.153Z,97.90
2018-03-11T04:48:10.445Z,98.10
2018-03-11T04:50:38.757Z,98.30
2018-03-11T04:53:06.279Z,98.40
2018-03-11T04:55:33.811Z,98.40
2018-03-11T04:58:01.325Z,98.40
2018-03-11T05:00:28.863Z,98.50
2018-03-11T05:02:56.382Z,98.60
2018-03-11T05:05:24.716Z,98.90
2018-03-11T05:07:52.234Z,98.90
2018-03-11T05:10:19.766Z,98.90
2018-03-11T05:12:47.290Z,98.90
2018-03-11T05:15:15.600Z,99.10
2018-03-11T05:17:43.184Z,99.10
2018-03-11T05:20:10.729Z,98.90
2018-03-11T05:22:39.020Z,98.90
2018-03-11T05:25:07.316Z,98.90
2018-03-11T05:27:35.595Z,98.60
2018-03-11T05:30:03.160Z,98.60
2018-03-11T05:32:30.676Z,98.40
2018-03-11T05:34:58.214Z,98.30
2018-03-11T05:37:26.519Z,98.40
2018-03-11T05:39:54.020Z,98.40
2018-03-11T05:42:21.557Z,98.60
2018-03-11T05:44:49.846Z,98.80
2018-03-11T05:47:17.378Z,98.90
2018-03-11T05:49:44.896Z,98.80
2018-03-11T05:52:12.438Z,98.90
2018-03-11T05:54:40.716Z,99.00
2018-03-11T05:57:08.239Z,99.00
2018-03-11T05:59:35.754Z,99.00
2018-03-11T06:02:04.049Z,99.10
2018-03-11T06:04:31.574Z,99.20
2018-03-11T06:06:59.100Z,99.30
2018-03-11T06:09:26.675Z,99.40
2018-03-11T06:11:54.195Z,99.40
2018-03-11T06:14:21.715Z,99.40
2018-03-11T06:16:49.256Z,99.10
2018-03-11T06:19:16.764Z,98.70
2018-03-11T06:21:45.066Z,98.60
2018-03-11T06:24:13.355Z,98.10
2018-03-11T06:26:41.653Z,97.90
2018-03-11T06:29:09.165Z,97.90
2018-03-11T06:31:36.707Z,97.80
2018-03-11T06:34:04.215Z,97.70
2018-03-11T06:36:31.766Z,97.10
2018-03-11T06:38:59.300Z,96.90
2018-03-11T06:41:27.638Z,96.20
2018-03-11T06:43:55.170Z,96.20
2018-03-11T06:46:23.447Z,95.10
2018-03-11T06:48:51.740Z,94.30
2018-03-11T06:51:20.021Z,93.70
2018-03-11T06:53:47.556Z,93.70
2018-03-11T06:56:15.090Z,93.00
2018-03-11T06:58:42.667Z,92.70
2018-03-11T07:01:10.186Z,92.70
2018-03-11T07:03:37.711Z,92.70
2018-03-11T07:06:05.231Z,92.40
2018-03-11T07:08:32.766Z,92.10
2018-03-11T07:11:00.303Z,91.70
2018-03-11T07:13:28.623Z,91.60
2018-03-11T07:15:56.150Z,91.60
2018-03-11T07:18:23.683Z,91.80
2018-03-11T07:20:51.206Z,91.70
2018-03-11T07:23:19.512Z,91.20
2018-03-11T07:25:47.034Z,91.20
2018-03-11T07:28:14.586Z,90.90
2018-03-11T07:30:42.109Z,90.60
2018-03-11T07:33:10.461Z,90.30
2018-03-11T07:35:38.743Z,90.30
2018-03-11T07:38:06.429Z,90.30
2018-03-11T07:40:33.964Z,89.80
2018-03-11T07:43:01.519Z,88.70
2018-03-11T07:45:29.891Z,87.70
2018-03-11T07:47:58.178Z,85.70
2018-03-11T07:50:25.762Z,85.90
2018-03-11T07:52:54.052Z,85.20
2018-03-11T07:55:22.364Z,84.60
2018-03-11T07:57:49.906Z,84.60
2018-03-11T08:00:18.220Z,84.40
2018-03-11T08:02:45.741Z,84.00
2018-03-11T08:05:13.302Z,83.70
2018-03-11T08:07:40.853Z,83.10
2018-03-11T08:10:08.422Z,82.90
2018-03-11T08:12:35.966Z,82.70
2018-03-11T08:15:04.261Z,83.70
2018-03-11T08:17:32.554Z,83.70
2018-03-11T08:20:00.856Z,83.60
2018-03-11T08:22:28.385Z,83.60
2018-03-11T08:24:55.926Z,83.40
2018-03-11T08:27:23.509Z,82.50
2018-03-11T08:29:51.058Z,82.70
2018-03-11T08:32:18.622Z,82.40
2018-03-11T08:34:46.166Z,82.30
2018-03-11T08:37:14.470Z,80.90
2018-03-11T08:39:42.022Z,80.90
2018-03-11T08:42:10.371Z,80.30
2018-03-11T08:44:37.910Z,80.30
2018-03-11T08:47:05.445Z,78.90
2018-03-11T08:49:32.986Z,79.10
2018-03-11T08:52:00.513Z,78.50
2018-03-11T08:54:28.822Z,78.10
2018-03-11T08:56:56.351Z,78.10
2018-03-11T08:59:23.948Z,77.80
2018-03-11T09:01:51.445Z,78.00
2018-03-11T09:04:18.957Z,77.60
2018-03-11T09:06:46.497Z,78.00
2018-03-11T09:09:14.153Z,77.40
2018-03-11T09:11:41.708Z,77.10
2018-03-11T09:14:09.889Z,76.50
2018-03-11T09:16:38.192Z,76.40
2018-03-11T09:19:06.544Z,76.30
2018-03-11T09:21:34.128Z,76.20
2018-03-11T09:24:01.641Z,75.20
2018-03-11T09:26:29.933Z,75.90
2018-03-11T09:28:57.449Z,75.60
2018-03-11T09:31:27.658Z,75.10
2018-03-11T09:33:55.175Z,75.60
2018-03-11T09:36:23.501Z,73.60
2018-03-11T09:38:51.745Z,73.60
2018-03-11T09:41:19.330Z,73.80
2018-03-11T09:43:47.610Z,74.90
2018-03-11T09:46:15.140Z,74.90
2018-03-11T09:48:43.439Z,74.40
2018-03-11T09:51:11.073Z,74.90
2018-03-11T09:53:38.641Z,74.00
2018-03-11T09:56:06.461Z,74.20
2018-03-11T09:58:35.349Z,74.40
2018-03-11T10:01:02.877Z,74.30
2018-03-11T10:03:31.169Z,72.80
2018-03-11T10:05:59.583Z,72.50
2018-03-11T10:08:27.146Z,72.50
2018-03-11T10:10:54.751Z,72.50
2018-03-11T10:13:24.053Z,71.70
2018-03-11T10:15:51.610Z,71.10
2018-03-11T10:18:19.134Z,70.90
2018-03-11T10:20:47.506Z,70.00
2018-03-11T10:23:15.020Z,70.00
2018-03-11T10:25:43.326Z,71.00
2018-03-11T10:28:10.949Z,70.90
2018-03-11T10:30:41.314Z,70.00
2018-03-11T10:35:44.678Z,69.90
2018-03-11T10:38:14.057Z,69.20
2018-03-11T10:40:42.369Z,68.70
2018-03-11T10:43:10.696Z,70.00
2018-03-11T10:45:39.379Z,69.90
2018-03-11T10:48:06.921Z,69.40
2018-03-11T10:50:35.436Z,68.40
2018-03-11T10:53:05.212Z,67.30
2018-03-11T10:55:33.620Z,67.20
2018-03-11T10:58:02.853Z,68.00
2018-03-11T11:00:36.687Z,69.10
2018-03-11T11:03:09.939Z,69.00
2018-03-11T11:05:47.649Z,68.70
2018-03-11T11:08:15.608Z,68.40
2018-03-11T11:10:43.177Z,68.30
2018-03-11T11:13:10.750Z,68.40
2018-03-11T11:15:41.215Z,68.80
2018-03-11T11:18:10.032Z,69.10
2018-03-11T11:20:37.572Z,68.50
2018-03-11T11:23:05.109Z,68.20
2018-03-11T11:25:33.470Z,68.90
2018-03-11T11:28:01.622Z,68.90
2018-03-11T11:30:31.766Z,70.20
2018-03-11T11:33:00.355Z,70.30
2018-03-11T11:35:27.883Z,70.20
2018-03-11T11:37:56.193Z,70.20
2018-03-11T11:40:24.138Z,70.10
2018-03-11T11:42:52.686Z,70.30
2018-03-11T11:45:20.206Z,70.30
2018-03-11T11:47:48.230Z,70.30
2018-03-11T11:50:15.752Z,70.50
2018-03-11T11:52:44.274Z,70.70
2018-03-11T11:55:11.978Z,70.80
2018-03-11T11:57:39.677Z,70.00
2018-03-11T12:00:07.206Z,69.40
2018-03-11T12:02:35.532Z,68.90
2018-03-11T12:05:03.724Z,68.90
2018-03-11T12:07:31.252Z,68.60
2018-03-11T12:09:59.549Z,67.40
2018-03-11T12:12:27.841Z,67.00
2018-03-11T12:14:56.154Z,66.20
2018-03-11T12:17:24.692Z,66.10
2018-03-11T12:19:52.215Z,65.60
2018-03-11T12:22:19.749Z,65.20
2018-03-11T12:24:48.053Z,65.30
2018-03-11T12:27:16.342Z,64.80
2018-03-11T12:29:44.643Z,64.80
2018-03-11T12:32:12.178Z,64.80
2018-03-11T12:34:39.718Z,63.80
2018-03-11T12:37:07.241Z,65.00
2018-03-11T12:39:35.546Z,63.80
2018-03-11T12:42:03.089Z,63.70
2018-03-11T12:44:30.634Z,63.80
2018-03-11T12:46:58.152Z,63.80
2018-03-11T12:49:26.257Z,64.70
2018-03-11T12:51:54.509Z,64.20
2018-03-11T12:54:22.095Z,64.30
2018-03-11T12:56:50.399Z,64.40
2018-03-11T12:59:18.032Z,64.00
2018-03-11T13:01:46.238Z,64.00
2018-03-11T13:04:13.789Z,64.10
2018-03-11T13:06:41.317Z,64.80
2018-03-11T13:09:08.856Z,64.00
2018-03-11T13:11:36.568Z,63.90
2018-03-11T13:14:06.058Z,63.70
2018-03-11T13:16:34.406Z,64.20
2018-03-11T13:19:02.193Z,64.10
2018-03-11T13:21:30.510Z,63.80
2018-03-11T13:23:58.877Z,63.80
2018-03-11T13:26:26.430Z,63.80
2018-03-11T13:28:54.301Z,63.90
2018-03-11T13:31:22.653Z,63.70
2018-03-11T13:34:02.690Z,64.30
2018-03-11T13:36:30.231Z,64.40
2018-03-11T13:39:09.609Z,65.20
2018-03-11T13:41:37.168Z,65.20
2018-03-11T13:44:04.693Z,64.90
2018-03-11T13:46:44.847Z,65.40
2018-03-11T13:49:12.408Z,65.30
2018-03-11T13:51:51.948Z,65.00
2018-03-11T13:54:20.637Z,65.30
2018-03-11T13:56:48.923Z,65.60
2018-03-11T13:59:17.282Z,64.80
2018-03-11T14:01:44.844Z,64.70
2018-03-11T14:04:13.145Z,64.70
2018-03-11T14:06:41.450Z,65.10
2018-03-11T14:09:08.979Z,65.10
2018-03-11T14:11:37.285Z,65.30
2018-03-11T14:14:05.599Z,65.30
2018-03-11T14:16:34.784Z,65.40
2018-03-11T14:19:02.639Z,65.50
2018-03-11T14:21:30.178Z,65.90
2018-03-11T14:23:57.692Z,65.60
2018-03-11T14:26:25.234Z,66.20
2018-03-11T14:28:52.767Z,66.90
2018-03-11T14:31:20.312Z,67.30
2018-03-11T14:33:48.602Z,68.00
2018-03-11T14:36:16.916Z,68.50
2018-03-11T14:38:44.469Z,68.40
2018-03-11T14:41:12.789Z,69.70
2018-03-11T14:43:40.331Z,69.70
2018-03-11T14:46:08.643Z,71.20
2018-03-11T14:48:36.939Z,72.80
2018-03-11T14:51:04.477Z,72.80
2018-03-11T14:53:32.778Z,75.70
2018-03-11T14:56:00.330Z,75.60
2018-03-11T14:58:27.983Z,75.60
2018-03-11T15:00:55.534Z,76.50
2018-03-11T15:03:23.082Z,77.70
2018-03-11T15:05:50.620Z,77.70
2018-03-11T15:08:18.915Z,76.70
2018-03-11T15:10:47.217Z,77.70
2018-03-11T15:13:15.510Z,77.60
2018-03-11T15:15:43.122Z,77.60
2018-03-11T15:18:10.666Z,78.40
2018-03-11T15:20:38.977Z,79.00
2018-03-11T15:23:06.538Z,78.90
2018-03-11T15:25:34.103Z,79.40
2018-03-11T15:28:01.628Z,78.90
2018-03-11T15:30:29.199Z,80.10
2018-03-11T15:32:56.723Z,80.20
2018-03-11T15:35:24.250Z,80.50
2018-03-11T15:37:51.821Z,83.20
2018-03-11T15:40:19.360Z,84.10
2018-03-11T15:42:46.910Z,81.40
2018-03-11T15:45:14.535Z,80.70
2018-03-11T15:47:42.088Z,81.30
2018-03-11T15:50:09.605Z,82.10
2018-03-11T15:52:37.918Z,82.10
2018-03-11T15:55:05.442Z,82.20
2018-03-11T15:57:32.994Z,82.20
2018-03-11T16:00:00.510Z,81.50
2018-03-11T16:02:36.994Z,82.30
2018-03-11T16:05:05.289Z,82.80
2018-03-11T16:07:33.031Z,82.80
2018-03-11T16:10:15.398Z,82.80
2018-03-11T16:12:42.954Z,82.40
2018-03-11T16:15:16.493Z,83.40
2018-03-11T16:17:44.976Z,83.50
2018-03-11T16:20:12.639Z,83.50
2018-03-11T16:22:40.442Z,84.00
2018-03-11T16:25:08.050Z,84.60
2018-03-11T16:27:35.585Z,84.80
2018-03-11T16:30:03.120Z,85.00
2018-03-11T16:32:31.439Z,85.00
2018-03-11T16:34:59.054Z,84.90
2018-03-11T16:37:26.590Z,84.00
2018-03-11T16:39:54.263Z,84.70
2018-03-11T16:42:21.807Z,84.50
2018-03-11T16:44:52.276Z,84.60
2018-03-11T16:47:19.826Z,84.60
2018-03-11T16:49:48.741Z,85.20
2018-03-11T16:52:16.323Z,85.60
2018-03-11T16:54:43.852Z,85.70
2018-03-11T16:57:11.436Z,86.00
2018-03-11T16:59:39.733Z,86.30
2018-03-11T17:02:08.051Z,86.90
2018-03-11T17:04:35.592Z,86.90
2018-03-11T17:07:03.910Z,87.10
2018-03-11T17:09:31.424Z,87.00
2018-03-11T17:11:58.936Z,87.40
2018-03-11T17:14:26.490Z,87.40
2018-03-11T17:16:54.793Z,88.30
2018-03-11T17:19:22.453Z,88.30
2018-03-11T17:21:50.746Z,88.20
2018-03-11T17:24:19.101Z,88.90
2018-03-11T17:26:46.631Z,88.90
2018-03-11T17:29:14.177Z,89.10
2018-03-11T17:31:42.490Z,90.10
2018-03-11T17:34:10.046Z,90.10
2018-03-11T17:36:38.377Z,90.30
2018-03-11T17:39:05.917Z,90.30
2018-03-11T17:41:33.430Z,90.30
2018-03-11T17:44:00.993Z,90.70
2018-03-11T17:46:28.516Z,91.30
2018-03-11T17:48:56.833Z,91.60
2018-03-11T17:51:24.381Z,91.60
2018-03-11T17:53:52.684Z,92.40
2018-03-11T17:56:20.238Z,92.30
2018-03-11T17:58:48.713Z,92.90
2018-03-11T18:01:16.262Z,93.60
2018-03-11T18:03:44.043Z,94.10
2018-03-11T18:06:11.586Z,94.70
2018-03-11T18:08:39.127Z,94.60
2018-03-11T18:11:07.414Z,94.90
2018-03-11T18:13:36.409Z,95.10
2018-03-11T18:16:03.933Z,95.00
2018-03-11T18:18:31.482Z,95.00
2018-03-11T18:20:59.770Z,95.30
2018-03-11T18:23:28.066Z,95.40
2018-03-11T18:25:55.601Z,95.30
2018-03-11T18:28:23.121Z,95.50
2018-03-11T18:30:50.661Z,95.70
2018-03-11T18:33:18.948Z,95.90
2018-03-11T18:35:46.516Z,95.90
2018-03-11T18:38:14.075Z,96.00
2018-03-11T18:40:41.738Z,96.40
2018-03-11T18:43:09.269Z,95.90
2018-03-11T18:45:38.449Z,95.80
2018-03-11T18:48:06.738Z,96.00
2018-03-11T18:50:35.037Z,96.10
2018-03-11T18:53:03.342Z,96.20
2018-03-11T18:55:30.885Z,96.20
2018-03-11T18:57:58.402Z,96.20
2018-03-11T19:00:26.786Z,96.30
2018-03-11T19:02:54.412Z,96.30
2018-03-11T19:05:21.990Z,96.40
2018-03-11T19:07:50.395Z,96.50
2018-03-11T19:10:18.226Z,96.80
2018-03-11T19:12:45.756Z,96.90
2018-03-11T19:15:13.336Z,96.90
2018-03-11T19:17:42.019Z,96.90
2018-03-11T19:20:10.307Z,96.90
2018-03-11T19:22:38.626Z,96.90
2018-03-11T19:25:06.144Z,96.90
2018-03-11T19:27:33.704Z,96.90
2018-03-11T19:30:01.229Z,96.80
2018-03-11T19:32:28.765Z,96.80
2018-03-11T19:34:56.287Z,96.80
2018-03-11T19:37:23.855Z,96.60
2018-03-11T19:39:51.411Z,96.80
2018-03-11T19:42:19.757Z,97.40
2018-03-11T19:44:47.376Z,97.40
2018-03-11T19:47:15.079Z,97.40
2018-03-11T19:49:42.704Z,97.30
2018-03-11T19:52:10.880Z,97.30
2018-03-11T19:54:38.417Z,97.20
2018-03-11T19:57:07.130Z,97.20
2018-03-11T19:59:34.658Z,97.20
2018-03-11T20:02:02.970Z,97.60
2018-03-11T20:04:30.498Z,97.60
2018-03-11T20:06:58.061Z,97.70
2018-03-11T20:09:25.627Z,97.90
2018-03-11T20:11:53.197Z,98.00
2018-03-11T20:14:21.490Z,97.70
2018-03-11T20:16:49.039Z,97.90
2018-03-11T20:19:16.582Z,97.70
2018-03-11T20:21:44.147Z,97.90
2018-03-11T20:24:12.519Z,98.30
2018-03-11T20:26:40.855Z,98.40
2018-03-11T20:29:08.420Z,98.40
2018-03-11T20:31:35.990Z,98.50
2018-03-11T20:34:03.584Z,98.70
2018-03-11T20:36:31.774Z,99.00
2018-03-11T20:38:59.325Z,99.10
2018-03-11T20:41:26.913Z,99.20
2018-03-11T20:43:54.451Z,99.40
2018-03-11T20:46:21.988Z,99.60
2018-03-11T20:48:49.573Z,99.70
2018-03-11T20:51:17.374Z,99.70
2018-03-11T20:53:44.988Z,99.80
2018-03-11T20:56:12.603Z,99.50
2018-03-11T20:58:40.927Z,99.80
2018-03-11T21:01:08.463Z,99.80
2018-03-11T21:03:36.832Z,99.60
2018-03-11T21:06:04.349Z,99.60
2018-03-11T21:08:31.884Z,99.70
2018-03-11T21:10:59.690Z,99.70
2018-03-11T21:13:27.315Z,99.70
2018-03-11T21:15:54.843Z,99.80
2018-03-11T21:18:23.228Z,99.80
2018-03-11T21:20:51.508Z,99.80
2018-03-11T21:23:23.450Z,99.80
2018-03-11T21:25:51.075Z,99.80
2018-03-11T21:28:19.367Z,99.80
2018-03-11T21:30:46.925Z,99.80
2018-03-11T21:33:15.242Z,99.80
2018-03-11T21:35:42.841Z,99.80
2018-03-11T21:38:10.388Z,99.80
2018-03-11T21:40:37.914Z,99.80
2018-03-11T21:43:06.382Z,99.80
2018-03-11T21:45:34.738Z,99.80
2018-03-11T21:48:03.236Z,99.80
2018-03-11T21:50:30.774Z,99.90
2018-03-11T21:52:59.579Z,99.90
2018-03-11T21:55:28.562Z,99.90
2018-03-11T21:57:56.115Z,99.90
2018-03-11T22:00:29.774Z,99.90
2018-03-11T22:02:58.099Z,99.90
2018-03-11T22:05:25.750Z,99.90
2018-03-11T22:07:54.047Z,99.90
2018-03-11T22:10:21.663Z,99.90
2018-03-11T22:12:49.227Z,99.90
2018-03-11T22:15:16.797Z,99.90
2018-03-11T22:17:44.390Z,99.90
2018-03-11T22:20:14.141Z,99.90
2018-03-11T22:22:42.695Z,99.90
2018-03-11T22:25:10.267Z,99.90
2018-03-11T22:27:40.125Z,99.90
2018-03-11T22:30:08.506Z,99.90
2018-03-11T22:32:36.031Z,99.90
2018-03-11T22:35:03.641Z,99.90
2018-03-11T22:37:31.183Z,99.90
2018-03-11T22:39:59.499Z,99.90
2018-03-11T22:42:28.069Z,99.90
2018-03-11T22:44:57.042Z,99.90
2018-03-11T22:47:26.158Z,99.90
2018-03-11T22:49:54.538Z,99.90
2018-03-11T22:52:23.537Z,99.90
2018-03-11T22:54:52.130Z,99.90
2018-03-11T22:57:19.726Z,99.90
2018-03-11T22:59:48.083Z,99.90
2018-03-11T23:02:16.499Z,99.90
2018-03-11T23:04:45.078Z,99.90
2018-03-11T23:07:13.346Z,99.90
2018-03-11T23:09:41.654Z,99.90
2018-03-11T23:12:09.840Z,99.90
2018-03-11T23:14:38.348Z,99.90
2018-03-11T23:17:06.018Z,99.90
2018-03-11T23:19:38.156Z,99.90
2018-03-11T23:22:06.619Z,99.90
2018-03-11T23:24:34.212Z,99.90
2018-03-11T23:27:05.249Z,99.90
2018-03-11T23:29:34.779Z,99.80
2018-03-11T23:32:06.286Z,99.70
2018-03-11T23:34:34.623Z,99.70
2018-03-11T23:37:05.080Z,99.70
2018-03-11T23:39:33.748Z,99.70
2018-03-11T23:42:05.752Z,99.70
2018-03-11T23:44:33.306Z,99.90
2018-03-11T23:47:02.561Z,99.90
2018-03-11T23:49:30.084Z,99.90
2018-03-11T23:51:59.632Z,99.90
2018-03-11T23:54:27.240Z,99.80
2018-03-11T23:56:54.885Z,99.80
2018-03-11T23:59:22.397Z,99.90
